Time;durP1;ratioP1;P1;durP2;ratioP2;P2;SDS_P1;SDS_P2;PMS_P1;PMS_P2;Temp;Humidity;BMP_temperature;BMP_pressure;BME280_temperature;BME280_humidity;BME280_pressure;Samples;Min_cycle;Max_cycle;Signal;HPM_P1;HPM_P2
2022/12/14 00:01:10;;;;;;;17.80;12.00;;;;;;;-145.23;100.00;58621.06;5017814;28;20246;-54
2022/12/14 00:03:37;;;;;;;17.53;12.90;;;;;;;-145.23;100.00;58621.06;5001957;28;20240;-53
2022/12/14 00:06:13;;;;;;;14.70;10.87;;;;;;;-145.23;100.00;58621.06;5013799;28;20291;-53
2022/12/14 00:08:40;;;;;;;15.67;11.67;;;;;;;-145.23;100.00;58621.06;5004043;28;20239;-53
2022/12/14 00:11:07;;;;;;;14.23;10.40;;;;;;;-145.23;100.00;58621.06;5008445;28;20266;-55
2022/12/14 00:13:34;;;;;;;16.30;10.80;;;;;;;-145.23;100.00;58621.06;5002360;28;20316;-53
2022/12/14 00:16:05;;;;;;;13.50;10.67;;;;;;;-145.23;100.00;58621.06;5007140;28;20337;-53
2022/12/14 00:18:33;;;;;;;14.83;11.07;;;;;;;-145.23;100.00;58621.06;5004289;28;20680;-54
2022/12/14 00:21:04;;;;;;;14.70;10.67;;;;;;;-145.23;100.00;58621.06;5007163;28;20318;-53
2022/12/14 00:23:31;;;;;;;22.77;12.43;;;;;;;-145.23;100.00;58621.06;5011343;28;20651;-56
2022/12/14 00:25:58;;;;;;;17.40;10.67;;;;;;;-145.23;100.00;58621.06;5012925;28;20289;-53
2022/12/14 00:28:24;;;;;;;17.33;11.93;;;;;;;-145.23;100.00;58621.06;5010912;28;20259;-55
2022/12/14 00:30:56;;;;;;;17.77;11.30;;;;;;;-145.23;100.00;58621.06;5012681;28;20319;-54
2022/12/14 00:33:23;;;;;;;15.70;11.47;;;;;;;-145.23;100.00;58621.06;5002461;28;20332;-53
2022/12/14 00:35:51;;;;;;;17.40;11.33;;;;;;;-145.23;100.00;58621.06;5006465;28;20774;-53
2022/12/14 00:38:17;;;;;;;17.73;11.93;;;;;;;-145.23;100.00;58621.06;5011063;28;20778;-58
2022/12/14 00:40:44;;;;;;;15.13;11.33;;;;;;;-145.23;100.00;58621.06;5018178;28;20237;-54
2022/12/14 00:43:11;;;;;;;14.23;10.43;;;;;;;-145.23;100.00;58621.06;5013253;28;20331;-56
2022/12/14 00:45:37;;;;;;;13.77;10.27;;;;;;;-145.23;100.00;58621.06;5014949;28;20520;-53
2022/12/14 00:48:04;;;;;;;15.27;10.90;;;;;;;-145.23;100.00;58621.06;5020867;28;20239;-52
2022/12/14 00:50:31;;;;;;;14.17;11.43;;;;;;;-145.23;100.00;58621.06;5023649;28;20314;-55
2022/12/14 00:52:59;;;;;;;16.47;11.40;;;;;;;-145.23;100.00;58621.06;5013106;28;20311;-54
2022/12/14 00:55:25;;;;;;;17.30;12.17;;;;;;;-145.23;100.00;58621.06;5002971;28;20235;-54
2022/12/14 00:57:52;;;;;;;18.77;12.70;;;;;;;-145.23;100.00;58621.06;5003889;28;20335;-54
2022/12/14 01:00:19;;;;;;;14.20;11.60;;;;;;;-145.23;100.00;58621.06;5000107;28;20656;-53
2022/12/14 01:02:45;;;;;;;16.33;11.83;;;;;;;-145.23;100.00;58621.06;5003061;28;20328;-53
2022/12/14 01:05:12;;;;;;;17.80;12.97;;;;;;;-145.23;100.00;58621.06;5004067;28;20235;-53
2022/12/14 01:07:38;;;;;;;19.40;11.93;;;;;;;-145.23;100.00;58621.06;5004528;28;20933;-54
2022/12/14 01:10:08;;;;;;;15.37;11.97;;;;;;;-145.23;100.00;58621.06;5004911;28;20228;-52
2022/12/14 01:12:34;;;;;;;23.40;14.53;;;;;;;-145.23;100.00;58621.06;5014171;28;20258;-53
2022/12/14 01:15:01;;;;;;;17.10;13.27;;;;;;;-145.23;100.00;58621.06;5010533;28;20332;-54
2022/12/14 01:17:28;;;;;;;17.60;14.23;;;;;;;-145.23;100.00;58621.06;5000554;28;20297;-55
2022/12/14 01:19:54;;;;;;;19.63;14.13;;;;;;;-145.23;100.00;58621.06;4999878;28;20582;-53
2022/12/14 01:22:21;;;;;;;19.20;12.37;;;;;;;-145.23;100.00;58621.06;5002532;28;20327;-54
2022/12/14 01:24:48;;;;;;;22.50;13.57;;;;;;;-145.23;100.00;58621.06;5002388;28;20223;-52
2022/12/14 01:27:15;;;;;;;18.70;13.47;;;;;;;-145.23;100.00;58621.06;4996830;28;20762;-53
2022/12/14 01:29:42;;;;;;;18.83;13.33;;;;;;;-145.23;100.00;58621.06;5000941;28;20244;-54
2022/12/14 01:32:09;;;;;;;17.60;13.63;;;;;;;-145.23;100.00;58621.06;5000069;28;20349;-53
2022/12/14 01:34:35;;;;;;;17.57;13.27;;;;;;;-145.23;100.00;58621.06;5002982;28;20235;-53
2022/12/14 01:37:02;;;;;;;18.03;12.90;;;;;;;-145.23;100.00;58621.06;4997622;28;20324;-55
2022/12/14 01:39:29;;;;;;;18.63;13.43;;;;;;;-145.23;100.00;58621.06;5004828;28;20333;-55
2022/12/14 01:41:55;;;;;;;21.37;15.20;;;;;;;-145.23;100.00;58621.06;5004376;28;20324;-53
2022/12/14 01:44:52;;;;;;;21.17;14.00;;;;;;;-145.23;100.00;58621.06;5006921;28;20322;-53
2022/12/14 01:47:23;;;;;;;19.10;14.27;;;;;;;-145.23;100.00;58621.06;5003872;28;20228;-54
2022/12/14 01:49:53;;;;;;;18.03;13.40;;;;;;;-145.23;100.00;58621.06;5010787;28;20246;-54
2022/12/14 01:52:22;;;;;;;20.57;14.73;;;;;;;-145.23;100.00;58621.06;5004464;28;20318;-53
2022/12/14 01:54:53;;;;;;;20.50;14.03;;;;;;;-145.23;100.00;58621.06;5001569;28;20327;-52
2022/12/14 01:57:23;;;;;;;21.07;13.83;;;;;;;-145.23;100.00;58621.06;5019367;28;20717;-52
2022/12/14 01:59:51;;;;;;;24.20;14.27;;;;;;;-145.23;100.00;58621.06;5016662;28;20329;-53
2022/12/14 02:02:20;;;;;;;18.73;13.37;;;;;;;-145.23;100.00;58621.06;5008835;28;20247;-53
2022/12/14 02:04:50;;;;;;;21.20;14.00;;;;;;;-145.23;100.00;58621.06;5002586;28;20667;-53
2022/12/14 02:07:18;;;;;;;18.53;12.97;;;;;;;-145.23;100.00;58621.06;5000656;28;20266;-53
2022/12/14 02:09:46;;;;;;;19.07;14.23;;;;;;;-145.23;100.00;58621.06;5001125;28;20299;-53
2022/12/14 02:12:15;;;;;;;19.50;13.27;;;;;;;-145.23;100.00;58621.06;5009936;28;20797;-55
2022/12/14 02:14:42;;;;;;;19.73;13.60;;;;;;;-145.23;100.00;58621.06;5009260;28;20231;-53
2022/12/14 02:17:11;;;;;;;21.40;14.67;;;;;;;-145.23;100.00;58621.06;5004345;28;20391;-56
2022/12/14 02:19:38;;;;;;;22.50;14.97;;;;;;;-145.23;100.00;58621.06;5006117;28;20258;-52
2022/12/14 02:22:18;;;;;;;20.23;13.33;;;;;;;-145.23;100.00;58621.06;5018214;28;20230;-52
2022/12/14 02:25:03;;;;;;;16.47;13.00;;;;;;;-145.23;100.00;58621.06;5013524;28;20227;-53
2022/12/14 02:27:43;;;;;;;19.97;14.43;;;;;;;-145.23;100.00;58621.06;5018266;28;20313;-53
2022/12/14 02:30:12;;;;;;;18.80;13.47;;;;;;;-145.23;100.00;58621.06;4998883;28;20890;-53
2022/12/14 02:32:59;;;;;;;21.63;13.53;;;;;;;-145.23;100.00;58621.06;5004900;28;20326;-53
2022/12/14 02:35:35;;;;;;;20.17;14.47;;;;;;;-145.23;100.00;58621.06;4993708;28;20240;-53
2022/12/14 02:38:09;;;;;;;18.03;14.67;;;;;;;-145.23;100.00;58621.06;5002571;28;20236;-54
2022/12/14 02:40:39;;;;;;;23.70;15.10;;;;;;;-145.23;100.00;58621.06;5001215;28;20338;-53
2022/12/14 02:43:13;;;;;;;20.63;14.93;;;;;;;-145.23;100.00;58621.06;5019714;28;20238;-53
2022/12/14 02:45:43;;;;;;;21.30;15.10;;;;;;;-145.23;100.00;58621.06;5019852;28;20317;-53
2022/12/14 02:48:16;;;;;;;18.13;13.73;;;;;;;-145.23;100.00;58621.06;5019173;28;20306;-53
2022/12/14 02:50:49;;;;;;;23.93;15.63;;;;;;;-145.23;100.00;58621.06;5003342;28;20701;-52
2022/12/14 02:53:20;;;;;;;20.87;13.80;;;;;;;-145.23;100.00;58621.06;5002104;28;20258;-53
2022/12/14 02:55:49;;;;;;;24.87;15.83;;;;;;;-145.23;100.00;58621.06;5005528;28;20290;-56
2022/12/14 02:58:20;;;;;;;20.40;14.57;;;;;;;-145.23;100.00;58621.06;5016353;28;20267;-54
2022/12/14 03:00:48;;;;;;;22.30;14.37;;;;;;;-145.23;100.00;58621.06;5026526;28;20847;-52
2022/12/14 03:03:15;;;;;;;19.77;14.23;;;;;;;-145.23;100.00;58621.06;5019997;28;20231;-53
2022/12/14 03:05:42;;;;;;;21.97;15.77;;;;;;;-145.23;100.00;58621.06;5011625;28;20236;-53
2022/12/14 03:08:11;;;;;;;20.03;13.83;;;;;;;-145.23;100.00;58621.06;5014443;28;20324;-53
2022/12/14 03:10:41;;;;;;;19.03;13.90;;;;;;;-145.23;100.00;58621.06;5004618;28;20235;-53
2022/12/14 03:13:13;;;;;;;19.17;14.40;;;;;;;-145.23;100.00;58621.06;5006355;28;20962;-53
2022/12/14 03:15:41;;;;;;;17.33;13.30;;;;;;;-145.23;100.00;58621.06;5020840;28;20307;-52
2022/12/14 03:18:13;;;;;;;20.17;13.67;;;;;;;-145.23;100.00;58621.06;5018983;28;20787;-53
2022/12/14 03:20:40;;;;;;;19.20;13.23;;;;;;;-145.23;100.00;58621.06;5008421;28;20413;-54
2022/12/14 03:23:08;;;;;;;19.57;14.20;;;;;;;-145.23;100.00;58621.06;5002969;28;20319;-53
2022/12/14 03:25:40;;;;;;;19.67;15.10;;;;;;;-145.23;100.00;58621.06;5017627;28;20244;-52
2022/12/14 03:28:10;;;;;;;19.67;13.90;;;;;;;-145.23;100.00;58621.06;5007708;28;20235;-54
2022/12/14 03:30:39;;;;;;;22.33;15.03;;;;;;;-145.23;100.00;58621.06;5007781;28;20314;-52
2022/12/14 03:33:09;;;;;;;24.77;16.13;;;;;;;-145.23;100.00;58621.06;5011420;28;20252;-54
2022/12/14 03:35:39;;;;;;;18.90;13.87;;;;;;;-145.23;100.00;58621.06;5002206;28;20318;-53
2022/12/14 03:38:10;;;;;;;21.03;15.43;;;;;;;-145.23;100.00;58621.06;5010036;28;20330;-53
2022/12/14 03:40:42;;;;;;;22.40;15.20;;;;;;;-145.23;100.00;58621.06;5007591;28;20356;-53
2022/12/14 03:43:15;;;;;;;20.57;14.23;;;;;;;-145.23;100.00;58621.06;5006760;28;20235;-56
2022/12/14 03:45:45;;;;;;;19.63;14.13;;;;;;;-145.23;100.00;58621.06;4997757;28;20690;-53
2022/12/14 03:48:18;;;;;;;21.93;15.00;;;;;;;-145.23;100.00;58621.06;5015205;28;20254;-52
2022/12/14 03:50:48;;;;;;;24.33;14.93;;;;;;;-145.23;100.00;58621.06;5030972;28;20317;-53
2022/12/14 03:53:17;;;;;;;19.67;15.33;;;;;;;-145.23;100.00;58621.06;5028766;28;20235;-54
2022/12/14 03:55:47;;;;;;;23.77;13.77;;;;;;;-145.23;100.00;58621.06;5028652;28;20772;-54
2022/12/14 03:58:26;;;;;;;24.00;15.53;;;;;;;-145.23;100.00;58621.06;5027795;28;20673;-52
2022/12/14 04:00:57;;;;;;;20.23;14.97;;;;;;;-145.23;100.00;58621.06;5027254;28;20228;-55
2022/12/14 04:03:30;;;;;;;16.67;13.83;;;;;;;-145.23;100.00;58621.06;5026938;28;20238;-53
2022/12/14 04:06:00;;;;;;;21.20;15.73;;;;;;;-145.23;100.00;58621.06;5023662;28;20227;-53
2022/12/14 04:08:32;;;;;;;26.57;16.10;;;;;;;-145.23;100.00;58621.06;5007695;28;20219;-52
2022/12/14 04:19:29;;;;;;;20.80;14.47;;;;;;;-145.23;100.00;58621.06;5031287;28;20322;-53
2022/12/14 04:21:59;;;;;;;21.50;14.17;;;;;;;-145.23;100.00;58621.06;5025874;28;20234;-53
2022/12/14 04:27:20;;;;;;;20.37;15.33;;;;;;;-145.23;100.00;58621.06;5016215;28;20238;-53
2022/12/14 04:29:57;;;;;;;19.93;14.00;;;;;;;-145.23;100.00;58621.06;5012009;28;20315;-53
2022/12/14 04:32:28;;;;;;;19.13;13.53;;;;;;;-145.23;100.00;58621.06;5007164;28;20787;-53
2022/12/14 04:34:59;;;;;;;22.93;14.07;;;;;;;-145.23;100.00;58621.06;5020202;28;20714;-54
2022/12/14 04:37:28;;;;;;;21.03;13.57;;;;;;;-145.23;100.00;58621.06;5015214;28;20248;-54
2022/12/14 04:39:57;;;;;;;23.17;15.43;;;;;;;-145.23;100.00;58621.06;5023353;28;20262;-53
2022/12/14 04:42:28;;;;;;;21.50;15.33;;;;;;;-145.23;100.00;58621.06;5018446;28;20654;-52
2022/12/14 04:44:59;;;;;;;23.00;15.13;;;;;;;-145.23;100.00;58621.06;5019170;28;20609;-53
2022/12/14 04:47:29;;;;;;;21.30;14.87;;;;;;;-145.23;100.00;58621.06;5019439;28;20234;-54
2022/12/14 04:50:01;;;;;;;18.23;13.47;;;;;;;-145.23;100.00;58621.06;5024217;28;20238;-53
2022/12/14 04:52:32;;;;;;;26.10;15.57;;;;;;;-145.23;100.00;58621.06;5024257;28;20235;-52
2022/12/14 04:55:02;;;;;;;24.17;16.60;;;;;;;-145.23;100.00;58621.06;5014793;28;20258;-55
2022/12/14 04:57:33;;;;;;;22.20;15.03;;;;;;;-145.23;100.00;58621.06;5020793;28;20242;-55
2022/12/14 05:00:01;;;;;;;21.03;15.10;;;;;;;-145.23;100.00;58621.06;5022822;28;20267;-53
2022/12/14 05:02:35;;;;;;;19.13;15.57;;;;;;;-145.23;100.00;58621.06;5020158;28;20261;-54
2022/12/14 05:05:09;;;;;;;23.77;15.53;;;;;;;-145.23;100.00;58621.06;5017338;28;20238;-53
2022/12/14 05:07:46;;;;;;;21.53;15.13;;;;;;;-145.23;100.00;58621.06;5022671;28;20238;-53
2022/12/14 05:10:15;;;;;;;19.07;15.03;;;;;;;-145.23;100.00;58621.06;5006559;28;20280;-55
2022/12/14 05:12:45;;;;;;;24.30;15.37;;;;;;;-145.23;100.00;58621.06;5031295;28;20771;-53
2022/12/14 05:15:15;;;;;;;21.60;14.67;;;;;;;-145.23;100.00;58621.06;5012137;28;20247;-52
2022/12/14 05:17:42;;;;;;;21.93;15.87;;;;;;;-145.23;100.00;58621.06;4998993;28;20227;-54
2022/12/14 05:20:17;;;;;;;20.30;15.43;;;;;;;-145.23;100.00;58621.06;5004340;28;20311;-57
2022/12/14 05:22:44;;;;;;;18.97;15.37;;;;;;;-145.23;100.00;58621.06;5000197;28;20733;-53
2022/12/14 05:25:11;;;;;;;20.07;14.00;;;;;;;-145.23;100.00;58621.06;5001801;28;20870;-53
2022/12/14 05:27:38;;;;;;;19.83;14.87;;;;;;;-145.23;100.00;58621.06;5011412;28;20307;-54
2022/12/14 05:30:06;;;;;;;22.37;16.07;;;;;;;-145.23;100.00;58621.06;5018630;28;20236;-56
2022/12/14 05:32:34;;;;;;;24.63;15.30;;;;;;;-145.23;100.00;58621.06;5013646;28;20749;-52
2022/12/14 05:35:01;;;;;;;19.63;14.73;;;;;;;-145.23;100.00;58621.06;4998954;28;20654;-53
2022/12/14 05:37:30;;;;;;;24.73;16.67;;;;;;;-145.23;100.00;58621.06;4994732;28;20286;-53
2022/12/14 05:39:57;;;;;;;22.30;15.00;;;;;;;-145.23;100.00;58621.06;5019695;28;20234;-52
2022/12/14 05:42:24;;;;;;;20.10;14.63;;;;;;;-145.23;100.00;58621.06;5019093;28;20400;-53
2022/12/14 05:44:50;;;;;;;19.87;16.47;;;;;;;-145.23;100.00;58621.06;5022467;28;20621;-53
2022/12/14 05:47:17;;;;;;;24.43;16.30;;;;;;;-145.23;100.00;58621.06;5020854;28;20234;-54
2022/12/14 05:49:44;;;;;;;19.97;14.57;;;;;;;-145.23;100.00;58621.06;5024933;28;20234;-53
2022/12/14 05:52:11;;;;;;;23.20;14.90;;;;;;;-145.23;100.00;58621.06;5025730;28;20261;-54
2022/12/14 05:54:40;;;;;;;23.03;15.00;;;;;;;-145.23;100.00;58621.06;5023294;28;20846;-53
2022/12/14 05:57:07;;;;;;;20.20;14.17;;;;;;;-145.23;100.00;58621.06;5024650;28;20230;-54
2022/12/14 05:59:34;;;;;;;23.63;15.40;;;;;;;-145.23;100.00;58621.06;5019423;28;20263;-53
2022/12/14 06:02:01;;;;;;;22.23;15.13;;;;;;;-145.23;100.00;58621.06;5017548;28;20234;-53
2022/12/14 06:04:28;;;;;;;20.23;14.77;;;;;;;-145.23;100.00;58621.06;5020237;28;20242;-53
2022/12/14 06:06:55;;;;;;;22.33;14.17;;;;;;;-145.23;100.00;58621.06;5016670;28;20831;-53
2022/12/14 06:09:21;;;;;;;21.93;15.83;;;;;;;-145.23;100.00;58621.06;5021383;28;20230;-53
2022/12/14 06:11:50;;;;;;;19.00;13.83;;;;;;;-145.23;100.00;58621.06;5024989;28;20270;-54
2022/12/14 06:14:17;;;;;;;18.20;13.70;;;;;;;-145.23;100.00;58621.06;5021183;28;20378;-52
2022/12/14 06:16:45;;;;;;;19.20;13.67;;;;;;;-145.23;100.00;58621.06;5019791;28;20243;-54
2022/12/14 06:19:13;;;;;;;20.87;14.47;;;;;;;-145.23;100.00;58621.06;5018910;28;20905;-53
2022/12/14 06:21:40;;;;;;;19.53;15.60;;;;;;;-145.23;100.00;58621.06;5018663;28;20942;-54
2022/12/14 06:24:08;;;;;;;17.03;13.20;;;;;;;-145.23;100.00;58621.06;5021539;28;20338;-54
2022/12/14 06:26:36;;;;;;;17.10;13.30;;;;;;;-145.23;100.00;58621.06;5015721;28;20329;-54
2022/12/14 06:29:04;;;;;;;19.37;13.60;;;;;;;-145.23;100.00;58621.06;5015927;28;20235;-54
2022/12/14 06:31:32;;;;;;;18.27;14.40;;;;;;;-145.23;100.00;58621.06;5019147;28;20235;-54
2022/12/14 06:34:01;;;;;;;19.00;13.37;;;;;;;-145.23;100.00;58621.06;5015654;28;20243;-54
2022/12/14 06:36:30;;;;;;;17.73;12.90;;;;;;;-145.23;100.00;58621.06;5021285;28;20274;-53
2022/12/14 06:38:58;;;;;;;18.60;13.10;;;;;;;-145.23;100.00;58621.06;5021216;28;20749;-53
2022/12/14 06:41:25;;;;;;;18.50;13.37;;;;;;;-145.23;100.00;58621.06;5020744;28;20874;-53
2022/12/14 06:43:52;;;;;;;20.23;14.33;;;;;;;-145.23;100.00;58621.06;5018411;28;20238;-52
2022/12/14 06:46:22;;;;;;;17.83;13.67;;;;;;;-145.23;100.00;58621.06;5022276;28;20329;-52
2022/12/14 06:48:50;;;;;;;19.87;14.17;;;;;;;-145.23;100.00;58621.06;5020677;28;20265;-53
2022/12/14 06:51:17;;;;;;;21.43;15.37;;;;;;;-145.23;100.00;58621.06;5017535;28;20230;-53
2022/12/14 06:53:43;;;;;;;21.10;14.03;;;;;;;-145.23;100.00;58621.06;5020438;28;20248;-53
2022/12/14 06:56:12;;;;;;;21.20;14.17;;;;;;;-145.23;100.00;58621.06;5013863;28;20405;-52
2022/12/14 06:58:39;;;;;;;19.83;13.83;;;;;;;-145.23;100.00;58621.06;5019844;28;20231;-55
2022/12/14 07:01:08;;;;;;;17.17;13.40;;;;;;;-145.23;100.00;58621.06;5002796;28;20252;-54
2022/12/14 07:03:36;;;;;;;21.80;15.23;;;;;;;-145.23;100.00;58621.06;4997058;28;20247;-53
2022/12/14 07:06:05;;;;;;;19.63;12.77;;;;;;;-145.23;100.00;58621.06;4991096;28;20236;-53
2022/12/14 07:08:33;;;;;;;18.70;13.77;;;;;;;-145.23;100.00;58621.06;4997297;28;20243;-53
2022/12/14 07:11:01;;;;;;;20.53;14.27;;;;;;;-145.23;100.00;58621.06;4996901;28;20240;-53
2022/12/14 07:13:29;;;;;;;20.90;13.37;;;;;;;-145.23;100.00;58621.06;5002183;28;20235;-54
2022/12/14 07:15:57;;;;;;;17.83;14.30;;;;;;;-145.23;100.00;58621.06;5004736;28;20239;-54
2022/12/14 07:18:24;;;;;;;22.70;13.17;;;;;;;-145.23;100.00;58621.06;5002456;28;20669;-53
2022/12/14 07:21:00;;;;;;;16.63;12.87;;;;;;;-145.23;100.00;58621.06;5008130;28;20257;-53
2022/12/14 07:23:29;;;;;;;17.33;12.20;;;;;;;-145.23;100.00;58621.06;5005577;28;20245;-54
2022/12/14 07:26:01;;;;;;;18.60;13.03;;;;;;;-145.23;100.00;58621.06;5003108;28;20238;-54
2022/12/14 07:28:28;;;;;;;18.73;13.17;;;;;;;-145.23;100.00;58621.06;5003211;28;20239;-53
2022/12/14 07:30:55;;;;;;;17.27;12.57;;;;;;;-145.23;100.00;58621.06;5000544;28;20228;-53
2022/12/14 07:33:22;;;;;;;19.00;12.63;;;;;;;-145.23;100.00;58621.06;5014370;28;20319;-53
2022/12/14 07:35:50;;;;;;;18.77;13.33;;;;;;;-145.23;100.00;58621.06;5004351;28;20718;-53
2022/12/14 07:38:18;;;;;;;19.63;13.70;;;;;;;-145.23;100.00;58621.06;5001634;28;20227;-54
2022/12/14 07:40:45;;;;;;;17.37;13.17;;;;;;;-145.23;100.00;58621.06;5001759;28;20608;-53
2022/12/14 07:43:12;;;;;;;19.87;14.27;;;;;;;-145.23;100.00;58621.06;5016046;28;20331;-53
2022/12/14 07:45:39;;;;;;;17.17;12.70;;;;;;;-145.23;100.00;58621.06;5021166;28;20698;-53
2022/12/14 07:48:07;;;;;;;18.03;13.10;;;;;;;-145.23;100.00;58621.06;5021296;28;20313;-53
2022/12/14 07:50:34;;;;;;;16.53;12.20;;;;;;;-145.23;100.00;58621.06;5012290;28;20358;-54
2022/12/14 07:53:01;;;;;;;20.10;12.30;;;;;;;-145.23;100.00;58621.06;5005232;28;20714;-53
2022/12/14 07:55:29;;;;;;;15.83;12.47;;;;;;;-145.23;100.00;58621.06;5017179;28;20231;-53
2022/12/14 07:57:56;;;;;;;16.83;13.00;;;;;;;-145.23;100.00;58621.06;5010735;28;20281;-54
2022/12/14 08:00:23;;;;;;;20.40;13.07;;;;;;;-145.23;100.00;58621.06;5012812;28;20598;-52
2022/12/14 08:02:50;;;;;;;21.50;13.40;;;;;;;-145.23;100.00;58621.06;5001801;28;20713;-53
2022/12/14 08:05:17;;;;;;;18.97;13.33;;;;;;;-145.23;100.00;58621.06;5011185;28;20301;-54
2022/12/14 08:07:44;;;;;;;17.33;11.80;;;;;;;-145.23;100.00;58621.06;5001278;28;20243;-53
2022/12/14 08:10:11;;;;;;;16.90;12.17;;;;;;;-145.23;100.00;58621.06;5005191;28;20243;-56
2022/12/14 08:12:39;;;;;;;18.40;12.57;;;;;;;-145.23;100.00;58621.06;5002033;28;20302;-53
2022/12/14 08:15:08;;;;;;;16.10;12.03;;;;;;;-145.23;100.00;58621.06;5017308;28;20227;-52
2022/12/14 08:17:35;;;;;;;16.63;13.50;;;;;;;-145.23;100.00;58621.06;5025302;28;20246;-53
2022/12/14 08:20:02;;;;;;;17.17;13.53;;;;;;;-145.23;100.00;58621.06;5022808;28;20267;-53
2022/12/14 08:22:30;;;;;;;17.17;13.17;;;;;;;-145.23;100.00;58621.06;5022505;28;20237;-52
2022/12/14 08:24:57;;;;;;;19.60;13.50;;;;;;;-145.23;100.00;58621.06;5025426;28;20240;-54
2022/12/14 08:27:24;;;;;;;17.47;14.30;;;;;;;-145.23;100.00;58621.06;5020947;28;20322;-52
2022/12/14 08:29:52;;;;;;;19.57;13.87;;;;;;;-145.23;100.00;58621.06;5024719;28;20295;-52
2022/12/14 08:32:19;;;;;;;19.43;12.53;;;;;;;-145.23;100.00;58621.06;5026308;28;20247;-53
2022/12/14 08:34:46;;;;;;;22.63;13.37;;;;;;;-145.23;100.00;58621.06;5024465;28;20714;-53
2022/12/14 08:37:13;;;;;;;20.53;14.17;;;;;;;-145.23;100.00;58621.06;5024384;28;20796;-53
2022/12/14 08:39:40;;;;;;;17.73;13.97;;;;;;;-145.23;100.00;58621.06;5023956;28;20227;-54
2022/12/14 08:42:06;;;;;;;18.73;12.57;;;;;;;-145.23;100.00;58621.06;5019270;28;20255;-54
2022/12/14 08:44:33;;;;;;;18.30;13.83;;;;;;;-145.23;100.00;58621.06;5022285;28;20231;-53
2022/12/14 08:47:02;;;;;;;17.40;13.33;;;;;;;-145.23;100.00;58621.06;5022820;28;20242;-53
2022/12/14 08:49:29;;;;;;;17.97;14.20;;;;;;;-145.23;100.00;58621.06;5022687;28;20871;-54
2022/12/14 08:51:56;;;;;;;19.23;12.77;;;;;;;-145.23;100.00;58621.06;5018589;28;20236;-54
2022/12/14 08:54:23;;;;;;;22.20;14.70;;;;;;;-145.23;100.00;58621.06;5021816;28;20277;-53
2022/12/14 08:56:50;;;;;;;21.83;13.93;;;;;;;-145.23;100.00;58621.06;5022088;28;20238;-53
2022/12/14 08:59:17;;;;;;;16.97;12.20;;;;;;;-145.23;100.00;58621.06;5024025;28;20323;-53
2022/12/14 09:01:47;;;;;;;17.87;13.07;;;;;;;-145.23;100.00;58621.06;5022583;28;20721;-53
2022/12/14 09:04:16;;;;;;;19.77;13.97;;;;;;;-145.23;100.00;58621.06;5016586;28;20224;-54
2022/12/14 09:06:43;;;;;;;17.90;12.33;;;;;;;-145.23;100.00;58621.06;5023262;28;20242;-53
2022/12/14 09:09:10;;;;;;;18.60;13.97;;;;;;;-145.23;100.00;58621.06;5023122;28;20234;-53
2022/12/14 09:11:37;;;;;;;24.77;15.60;;;;;;;-145.23;100.00;58621.06;5021458;28;20715;-53
2022/12/14 09:14:04;;;;;;;17.87;13.77;;;;;;;-145.23;100.00;58621.06;5020333;28;20314;-52
2022/12/14 09:16:30;;;;;;;18.07;13.17;;;;;;;-145.23;100.00;58621.06;5020024;28;20282;-53
2022/12/14 09:18:58;;;;;;;16.83;13.13;;;;;;;-145.23;100.00;58621.06;5021793;28;20289;-54
2022/12/14 09:21:26;;;;;;;21.87;14.00;;;;;;;-145.23;100.00;58621.06;5022933;28;20246;-53
2022/12/14 09:23:54;;;;;;;17.50;13.00;;;;;;;-145.23;100.00;58621.06;5024684;28;20304;-57
2022/12/14 09:26:22;;;;;;;18.33;12.90;;;;;;;-145.23;100.00;58621.06;5017447;28;20237;-54
2022/12/14 09:28:51;;;;;;;15.43;11.57;;;;;;;-145.23;100.00;58621.06;5024965;28;20247;-53
2022/12/14 09:31:20;;;;;;;21.17;13.33;;;;;;;-145.23;100.00;58621.06;5020501;28;20238;-53
2022/12/14 09:33:47;;;;;;;14.30;12.23;;;;;;;-145.23;100.00;58621.06;5020899;28;20236;-54
2022/12/14 09:36:16;;;;;;;16.77;12.03;;;;;;;-145.23;100.00;58621.06;5015196;28;20231;-52
2022/12/14 09:38:45;;;;;;;22.13;14.17;;;;;;;-145.23;100.00;58621.06;5017971;28;20257;-53
2022/12/14 09:41:23;;;;;;;20.17;13.80;;;;;;;-145.23;100.00;58621.06;5018022;28;20247;-55
2022/12/14 09:43:54;;;;;;;19.63;13.50;;;;;;;-145.23;100.00;58621.06;5021879;28;20257;-53
2022/12/14 09:46:28;;;;;;;18.40;13.47;;;;;;;-145.23;100.00;58621.06;5020035;28;20231;-53
2022/12/14 09:48:56;;;;;;;17.03;12.87;;;;;;;-145.23;100.00;58621.06;5016472;28;20234;-53
2022/12/14 09:51:25;;;;;;;18.57;12.03;;;;;;;-145.23;100.00;58621.06;5016746;28;20323;-53
2022/12/14 09:53:58;;;;;;;20.03;12.43;;;;;;;-145.23;100.00;58621.06;5018797;28;20243;-54
2022/12/14 09:56:25;;;;;;;15.33;11.77;;;;;;;-145.23;100.00;58621.06;5008890;28;20230;-54
2022/12/14 09:58:55;;;;;;;15.60;12.63;;;;;;;-145.23;100.00;58621.06;5004156;28;20321;-53
2022/12/14 10:01:37;;;;;;;15.00;12.03;;;;;;;-145.23;100.00;58621.06;5001687;28;20243;-53
2022/12/14 10:04:11;;;;;;;21.40;13.07;;;;;;;-145.23;100.00;58621.06;5002189;28;20597;-54
2022/12/14 10:06:41;;;;;;;16.80;12.10;;;;;;;-145.23;100.00;58621.06;5019802;28;20304;-53
2022/12/14 10:09:16;;;;;;;14.63;12.00;;;;;;;-145.23;100.00;58621.06;5016534;28;20314;-54
2022/12/14 10:11:51;;;;;;;17.63;12.10;;;;;;;-145.23;100.00;58621.06;5008246;28;20242;-53
2022/12/14 10:14:23;;;;;;;16.57;12.23;;;;;;;-145.23;100.00;58621.06;5011214;28;20797;-53
2022/12/14 10:16:56;;;;;;;16.23;11.93;;;;;;;-145.23;100.00;58621.06;5021078;28;20243;-55
2022/12/14 10:19:31;;;;;;;17.00;12.37;;;;;;;-145.23;100.00;58621.06;5020988;28;20266;-53
2022/12/14 10:22:01;;;;;;;15.77;12.07;;;;;;;-145.23;100.00;58621.06;4998730;28;20239;-53
2022/12/14 10:24:32;;;;;;;17.47;12.77;;;;;;;-145.23;100.00;58621.06;5000457;28;20236;-53
2022/12/14 10:27:00;;;;;;;18.30;13.43;;;;;;;-145.23;100.00;58621.06;5006718;28;20230;-53
2022/12/14 10:29:32;;;;;;;15.43;12.00;;;;;;;-145.23;100.00;58621.06;4997473;28;20468;-54
2022/12/14 10:32:07;;;;;;;19.17;12.70;;;;;;;-145.23;100.00;58621.06;5000324;28;20239;-53
2022/12/14 10:34:35;;;;;;;14.97;11.57;;;;;;;-145.23;100.00;58621.06;5001393;28;20329;-54
2022/12/14 10:37:11;;;;;;;18.50;13.33;;;;;;;-145.23;100.00;58621.06;4994665;28;20354;-53
2022/12/14 10:39:50;;;;;;;17.63;12.57;;;;;;;-145.23;100.00;58621.06;5002043;28;20298;-53
2022/12/14 10:42:23;;;;;;;15.83;11.37;;;;;;;-145.23;100.00;58621.06;5006169;28;20386;-54
2022/12/14 10:44:58;;;;;;;16.77;12.23;;;;;;;-145.23;100.00;58621.06;5004815;28;20400;-53
2022/12/14 10:47:28;;;;;;;18.97;12.87;;;;;;;-145.23;100.00;58621.06;4999316;28;20236;-54
2022/12/14 10:50:01;;;;;;;15.40;13.03;;;;;;;-145.23;100.00;58621.06;5001885;28;20236;-53
2022/12/14 10:52:34;;;;;;;16.97;12.23;;;;;;;-145.23;100.00;58621.06;5001502;28;20704;-53
2022/12/14 10:55:05;;;;;;;16.97;12.27;;;;;;;-145.23;100.00;58621.06;4993098;28;20361;-53
2022/12/14 10:57:32;;;;;;;18.03;12.47;;;;;;;-145.23;100.00;58621.06;5003128;28;20239;-53
2022/12/14 10:59:59;;;;;;;15.13;11.30;;;;;;;-145.23;100.00;58621.06;4999451;28;20255;-52
2022/12/14 11:02:28;;;;;;;19.07;12.80;;;;;;;-145.23;100.00;58621.06;5000143;28;20246;-54
2022/12/14 11:04:57;;;;;;;16.97;11.67;;;;;;;-145.23;100.00;58621.06;5004279;28;20296;-54
2022/12/14 11:07:26;;;;;;;15.43;11.97;;;;;;;-145.23;100.00;58621.06;5013782;28;20668;-53
2022/12/14 11:09:53;;;;;;;20.53;12.30;;;;;;;-145.23;100.00;58621.06;5014478;28;20317;-53
2022/12/14 11:12:24;;;;;;;17.37;12.67;;;;;;;-145.23;100.00;58621.06;5023352;28;20238;-53
2022/12/14 11:14:54;;;;;;;15.90;11.53;;;;;;;-145.23;100.00;58621.06;5014902;28;20264;-53